createdAt,value
2023-01-19T00:01:55.320Z,60.8
2023-01-19T00:04:01.544Z,52.3
2023-01-19T00:06:07.708Z,55.2
2023-01-19T00:08:13.886Z,59.8
2023-01-19T00:10:20.079Z,61.1
2023-01-19T00:12:26.246Z,59.4
2023-01-19T00:14:32.459Z,67.3
2023-01-19T00:16:41.549Z,39.2
2023-01-19T00:18:47.756Z,42.2
2023-01-19T00:20:53.920Z,49.8
2023-01-19T00:24:04.665Z,50.2
2023-01-19T00:26:10.868Z,50.1
2023-01-19T00:28:17.049Z,60.6
2023-01-19T00:30:26.133Z,60.9
2023-01-19T00:32:32.335Z,43.2
2023-01-19T00:34:38.495Z,63.8
2023-01-19T00:38:50.861Z,40.2
2023-01-19T00:40:57.039Z,77.8
2023-01-19T00:43:03.590Z,66.7
2023-01-19T00:45:12.272Z,84.1
2023-01-19T00:47:18.456Z,75.8
2023-01-19T00:49:24.655Z,96.2
2023-01-19T00:51:30.806Z,83.9
2023-01-19T00:55:43.173Z,83.6
2023-01-19T00:57:49.354Z,79.8
2023-01-19T00:59:58.427Z,79.2
2023-01-19T01:02:04.708Z,51.5
2023-01-19T01:04:10.774Z,78
2023-01-19T01:06:16.934Z,78.8
2023-01-19T01:10:29.295Z,83.8
2023-01-19T01:12:35.454Z,80.7
2023-01-19T01:16:50.809Z,86.8
2023-01-19T01:21:28.346Z,129.7
2023-01-19T01:23:34.517Z,103.6
2023-01-19T01:25:40.702Z,100.8
2023-01-19T01:27:49.765Z,142.7
2023-01-19T01:29:55.923Z,140.7
2023-01-19T01:32:02.114Z,157.2
2023-01-19T01:34:08.291Z,144.6
2023-01-19T01:36:14.446Z,150
2023-01-19T01:38:20.631Z,160.9
2023-01-19T01:40:26.769Z,124.9
2023-01-19T01:42:35.869Z,155
2023-01-19T01:44:42.038Z,145.8
2023-01-19T01:46:49.784Z,118.4
2023-01-19T01:48:55.926Z,107.8
2023-01-19T01:51:02.130Z,136
2023-01-19T01:53:08.536Z,129.4
2023-01-19T01:55:14.475Z,125.3
2023-01-19T01:57:23.549Z,124
2023-01-19T01:59:29.755Z,132.1
2023-01-19T02:01:36.012Z,130.9
2023-01-19T02:03:42.224Z,118.9
2023-01-19T02:05:48.251Z,102.2
2023-01-19T02:07:54.463Z,92
2023-01-19T02:10:00.639Z,94.6
2023-01-19T02:12:09.756Z,99.5
2023-01-19T02:16:22.182Z,67.4
2023-01-19T02:17:26.639Z,74.7
2023-01-19T02:19:32.866Z,88.1
2023-01-19T02:21:39.045Z,66.1
2023-01-19T02:23:45.261Z,60.1
2023-01-19T02:25:54.316Z,46.9
2023-01-19T02:28:00.559Z,54.3
2023-01-19T02:34:19.072Z,39.6
2023-01-19T02:36:25.468Z,37
2023-01-19T02:38:31.476Z,30
2023-01-19T02:40:40.549Z,37.8
2023-01-19T02:44:52.914Z,34.1
2023-01-19T02:46:59.090Z,38.9
2023-01-19T02:49:05.300Z,38
2023-01-19T02:51:11.485Z,30.5
2023-01-19T02:53:17.620Z,27.4
2023-01-19T02:55:26.707Z,31.1
2023-01-19T02:57:32.910Z,32.2
2023-01-19T02:59:39.058Z,25.3
2023-01-19T03:01:45.401Z,33.9
2023-01-19T03:03:51.444Z,32.7
2023-01-19T03:05:57.610Z,34.2
2023-01-19T03:08:03.791Z,39.8
2023-01-19T03:10:12.877Z,38.6
2023-01-19T03:12:19.010Z,39.9
2023-01-19T03:14:25.204Z,34.4
2023-01-19T03:15:29.822Z,48.3
2023-01-19T03:17:35.881Z,41.5
2023-01-19T03:19:42.064Z,50.5
2023-01-19T03:21:48.269Z,40.2
2023-01-19T03:23:57.356Z,54.5
2023-01-19T03:26:03.479Z,53.2
2023-01-19T03:28:09.675Z,56.1
2023-01-19T03:30:15.886Z,61.9
2023-01-19T03:32:22.028Z,51.5
2023-01-19T03:34:28.285Z,50.6
2023-01-19T03:36:34.360Z,47.4
2023-01-19T03:38:43.432Z,63.7
2023-01-19T03:40:49.611Z,49.1
2023-01-19T03:42:55.798Z,51
2023-01-19T03:47:08.117Z,57.8
2023-01-19T03:51:20.474Z,67.2
2023-01-19T03:53:29.558Z,50
2023-01-19T03:55:35.719Z,37.5
2023-01-19T03:57:41.922Z,53
2023-01-19T04:04:00.467Z,33.4
2023-01-19T04:06:06.666Z,39.1
2023-01-19T04:08:15.720Z,41.8
2023-01-19T04:10:21.921Z,30.3
2023-01-19T04:12:28.109Z,48.8
2023-01-19T04:15:38.912Z,55.6
2023-01-19T04:17:44.996Z,47.7
2023-01-19T04:19:51.189Z,45.1
2023-01-19T04:22:00.279Z,54.8
2023-01-19T04:24:06.477Z,36.8
2023-01-19T04:26:12.662Z,40.4
2023-01-19T04:28:18.845Z,42
2023-01-19T04:30:25.040Z,43.4
2023-01-19T04:32:31.230Z,50.1
2023-01-19T04:34:37.426Z,47.4
2023-01-19T04:36:46.519Z,52.4
2023-01-19T04:38:52.687Z,51.9
2023-01-19T04:40:58.890Z,48
2023-01-19T04:43:05.127Z,39.9
2023-01-19T04:45:11.279Z,23.4
2023-01-19T04:47:17.474Z,36.9
2023-01-19T04:49:23.707Z,38.6
2023-01-19T04:53:38.976Z,20.6
2023-01-19T05:02:03.843Z,16
2023-01-19T05:04:09.985Z,17.7
2023-01-19T05:06:19.114Z,23.4
2023-01-19T05:08:25.312Z,31.4
2023-01-19T05:10:31.530Z,17.2
2023-01-19T05:17:09.775Z,22.7
2023-01-19T05:19:18.897Z,12.5
2023-01-19T05:23:31.298Z,15
2023-01-19T05:27:43.714Z,18.9
2023-01-19T05:29:49.948Z,19.6
2023-01-19T05:31:56.213Z,15.3
2023-01-19T05:36:11.459Z,21.6
2023-01-19T05:53:04.311Z,7.8
2023-01-19T05:57:16.474Z,4.2
2023-01-19T05:59:22.697Z,22.3
2023-01-19T06:01:28.988Z,12.1
2023-01-19T06:03:38.102Z,20.5
2023-01-19T06:05:44.239Z,6.4
2023-01-19T06:07:50.506Z,9.5
2023-01-19T06:08:55.006Z,16.6
2023-01-19T06:13:07.424Z,17.4
2023-01-19T06:19:28.975Z,19.1
2023-01-19T06:21:35.171Z,12
2023-01-19T06:23:41.397Z,14.5
2023-01-19T06:25:47.599Z,19.2
2023-01-19T06:27:53.850Z,13.5
2023-01-19T06:30:00.180Z,28.1
2023-01-19T06:36:21.595Z,6.7
2023-01-19T06:38:27.802Z,14.1
2023-01-19T06:40:34.039Z,17.4
2023-01-19T06:44:46.443Z,26.8
2023-01-19T06:47:15.463Z,20.8
2023-01-19T06:51:08.013Z,19.4
2023-01-19T06:53:14.227Z,32.1
2023-01-19T06:55:20.408Z,12.6
2023-01-19T06:57:26.665Z,22.4
2023-01-19T06:59:32.833Z,24.1
2023-01-19T07:01:42.041Z,28
2023-01-19T07:03:48.166Z,34
2023-01-19T07:05:54.394Z,24.8
2023-01-19T07:09:05.168Z,32.6
2023-01-19T07:13:17.590Z,53
2023-01-19T07:15:26.670Z,30.1
2023-01-19T07:17:32.884Z,39.1
2023-01-19T07:19:39.093Z,34.2
2023-01-19T07:21:45.307Z,46.1
2023-01-19T07:23:51.502Z,25.7
2023-01-19T07:25:57.718Z,31.9
2023-01-19T07:28:03.903Z,35.2
2023-01-19T07:30:13.025Z,31.8
2023-01-19T07:32:19.239Z,36.1
2023-01-19T07:34:25.461Z,44.8
2023-01-19T07:47:05.595Z,47.9
2023-01-19T07:49:11.760Z,35.2
2023-01-19T07:51:19.608Z,35.1
2023-01-19T07:53:25.745Z,45
2023-01-19T07:55:31.942Z,39.6
2023-01-19T07:57:38.133Z,44.7
2023-01-19T07:59:47.240Z,39.3
2023-01-19T08:01:53.653Z,33
2023-01-19T08:03:59.657Z,49.6
2023-01-19T08:05:04.176Z,42.4
2023-01-19T08:07:10.398Z,51.9
2023-01-19T08:15:38.179Z,46.1
2023-01-19T08:19:50.509Z,48.2
2023-01-19T08:21:56.720Z,35.2
2023-01-19T08:28:18.232Z,51.1
2023-01-19T08:32:30.631Z,28.9
2023-01-19T08:34:36.795Z,28.1
2023-01-19T08:36:42.992Z,45.9
2023-01-19T08:38:49.197Z,39.2
2023-01-19T08:43:04.513Z,46.3
2023-01-19T08:45:10.698Z,34
2023-01-19T08:47:16.929Z,27.2
2023-01-19T08:49:23.135Z,26.4
2023-01-19T08:51:29.320Z,20.3
2023-01-19T08:53:35.517Z,18.9
2023-01-19T08:55:41.733Z,34.9
2023-01-19T08:57:50.867Z,41.3
2023-01-19T08:59:57.088Z,31.1
2023-01-19T09:02:03.341Z,33.5
2023-01-19T09:04:29.311Z,28.8
2023-01-19T09:06:35.564Z,33.3
2023-01-19T09:10:50.894Z,44.9
2023-01-19T09:12:57.101Z,52
2023-01-19T09:19:15.751Z,26.1
2023-01-19T09:23:28.223Z,26.6
2023-01-19T09:25:37.326Z,29.8
2023-01-19T09:29:49.745Z,22.1
2023-01-19T09:31:56.027Z,21.9
2023-01-19T09:34:02.182Z,29.9
2023-01-19T09:36:08.426Z,36.2
2023-01-19T09:38:14.636Z,22.2
2023-01-19T09:42:29.979Z,30.7
2023-01-19T09:44:36.265Z,33.5
2023-01-19T09:46:42.447Z,32.9
2023-01-19T09:50:54.880Z,25.1
2023-01-19T09:57:16.500Z,20.8
2023-01-19T09:59:22.813Z,31.3
2023-01-19T10:00:27.365Z,27.1
2023-01-19T10:04:39.751Z,21.7
2023-01-19T10:06:47.775Z,9.6
2023-01-19T10:08:55.161Z,21.8
2023-01-19T10:11:01.477Z,18.2
2023-01-19T10:13:07.682Z,12.4
2023-01-19T10:17:20.093Z,20.3
2023-01-19T10:21:32.503Z,21.1
2023-01-19T10:23:41.473Z,20.5
2023-01-19T10:25:47.772Z,22.8
2023-01-19T10:27:53.781Z,29.6
2023-01-19T10:29:59.994Z,15.3
2023-01-19T10:32:06.172Z,25.8
2023-01-19T10:34:12.337Z,16.1
2023-01-19T10:36:18.500Z,18.3
2023-01-19T10:38:27.511Z,31.5
2023-01-19T10:40:33.640Z,26.5
2023-01-19T10:42:39.797Z,9.2
2023-01-19T10:53:13.567Z,23.9
2023-01-19T10:55:19.674Z,23.4
2023-01-19T10:58:30.407Z,26.3
2023-01-19T11:00:36.551Z,23.4
2023-01-19T11:02:42.777Z,26.2
2023-01-19T11:04:50.059Z,14.6
2023-01-19T11:06:57.944Z,28.9
2023-01-19T11:11:10.303Z,18.9
2023-01-19T11:13:16.523Z,22.7
2023-01-19T11:17:28.933Z,28.5
2023-01-19T11:19:35.128Z,11.3
2023-01-19T11:21:44.146Z,23.1
2023-01-19T11:23:50.333Z,22.9
2023-01-19T11:25:56.546Z,22
2023-01-19T11:28:02.750Z,22.4
2023-01-19T11:30:08.950Z,15.4
2023-01-19T11:32:15.155Z,18.6
2023-01-19T11:34:21.374Z,16.3
2023-01-19T11:42:48.973Z,20.7
2023-01-19T11:44:55.209Z,14.9
2023-01-19T11:47:01.402Z,7.9
2023-01-19T11:49:07.631Z,6.1
2023-01-19T11:51:16.627Z,15.4
2023-01-19T11:53:22.812Z,13.8
2023-01-19T11:55:29.019Z,14.9
2023-01-19T11:56:33.515Z,12.4
2023-01-19T11:58:39.729Z,14.7
2023-01-19T12:02:52.107Z,14.5
2023-01-19T12:07:07.319Z,20.9
2023-01-19T12:09:13.514Z,21.5
2023-01-19T12:11:19.711Z,7.1
2023-01-19T12:15:32.109Z,9.6
2023-01-19T12:17:38.292Z,10.2
2023-01-19T12:19:47.305Z,15.2
2023-01-19T12:21:53.513Z,18.6
2023-01-19T12:23:59.767Z,18.2
2023-01-19T12:26:05.875Z,8.9
2023-01-19T12:28:12.183Z,14.4
2023-01-19T12:30:18.315Z,15.4
2023-01-19T12:32:24.476Z,17.1
2023-01-19T12:42:58.301Z,12.6
2023-01-19T12:47:10.672Z,12.4
2023-01-19T12:49:19.664Z,6.4
2023-01-19T12:51:25.887Z,10.9
2023-01-19T12:53:32.096Z,12.8
2023-01-19T12:55:57.833Z,11.2
2023-01-19T12:58:04.077Z,7.6
2023-01-19T13:00:10.289Z,6.5
2023-01-19T13:02:19.319Z,3.6
2023-01-19T13:04:25.544Z,8.1
2023-01-19T13:06:31.758Z,8.4
2023-01-19T13:08:38.003Z,4.3
2023-01-19T13:10:44.219Z,9.9
2023-01-19T13:12:50.443Z,2.6
2023-01-19T13:14:56.687Z,4.4
2023-01-19T13:17:05.683Z,14.8
2023-01-19T13:19:11.933Z,14.6
2023-01-19T13:21:18.135Z,14.3
2023-01-19T13:23:24.357Z,5.3
2023-01-19T13:25:30.576Z,11.3
2023-01-19T13:27:36.809Z,25.8
2023-01-19T13:29:42.995Z,11.2
2023-01-19T13:31:52.024Z,9.8
2023-01-19T13:33:58.236Z,5.9
2023-01-19T13:38:10.712Z,7.2
2023-01-19T13:42:23.099Z,9.9
2023-01-19T13:44:29.326Z,9.3
2023-01-19T13:46:38.530Z,8.5
2023-01-19T13:50:50.770Z,6.7
2023-01-19T13:51:55.280Z,6.2
2023-01-19T13:54:03.070Z,9.5
2023-01-19T13:56:09.283Z,9
2023-01-19T14:08:49.339Z,12
2023-01-19T14:13:01.701Z,8.5
2023-01-19T14:15:10.736Z,20.1
2023-01-19T14:17:16.914Z,10.5
2023-01-19T14:19:23.153Z,12.1
2023-01-19T14:21:29.336Z,4.1
2023-01-19T14:25:41.800Z,8.5
2023-01-19T14:27:48.015Z,23.6
2023-01-19T14:32:03.208Z,12.7
2023-01-19T14:34:09.444Z,7.3
2023-01-19T14:36:17.566Z,12.2
2023-01-19T14:38:21.852Z,6.5
2023-01-19T14:40:28.068Z,17.5
2023-01-19T14:42:34.281Z,3
2023-01-19T14:44:43.309Z,10.5
2023-01-19T14:46:49.551Z,8.1
2023-01-19T14:50:00.233Z,7.5
2023-01-19T14:52:06.471Z,5.7
2023-01-19T14:54:12.658Z,22
2023-01-19T14:56:18.860Z,6.9
2023-01-19T14:58:27.865Z,9.4
2023-01-19T15:06:52.688Z,8
2023-01-19T15:08:58.900Z,6.4
2023-01-19T15:11:05.093Z,5.5
2023-01-19T15:13:14.114Z,11.4
2023-01-19T15:15:20.304Z,17
2023-01-19T15:19:32.689Z,5.2
2023-01-19T15:21:38.879Z,8
2023-01-19T15:23:45.073Z,7
2023-01-19T15:25:51.265Z,12.2
2023-01-19T15:28:00.253Z,10.6
2023-01-19T15:32:12.652Z,16.9
2023-01-19T15:38:31.168Z,7
2023-01-19T15:40:37.348Z,8.9
2023-01-19T15:42:46.313Z,8.5
2023-01-19T15:44:52.498Z,12.2
2023-01-19T15:46:58.765Z,10.6
2023-01-19T15:48:03.242Z,17.9
2023-01-19T15:50:09.401Z,9.3
2023-01-19T15:54:21.849Z,10.1
2023-01-19T15:56:30.938Z,10
2023-01-19T15:58:37.202Z,8.6
2023-01-19T16:00:43.387Z,14.6
2023-01-19T16:02:49.682Z,10.2
2023-01-19T16:19:42.317Z,9.5
2023-01-19T16:21:48.507Z,11.7
2023-01-19T16:23:54.789Z,21.5
2023-01-19T16:26:03.893Z,10.9
2023-01-19T16:28:10.131Z,12.6
2023-01-19T16:30:16.377Z,12.3
2023-01-19T16:32:22.646Z,23.5
2023-01-19T16:34:28.825Z,15
2023-01-19T16:36:35.036Z,12.1
2023-01-19T16:38:41.232Z,10.7
2023-01-19T16:40:50.387Z,15.6
2023-01-19T16:42:56.562Z,9.9
2023-01-19T16:45:02.835Z,7.7
2023-01-19T16:47:28.681Z,23.2
2023-01-19T16:49:34.914Z,19.6
2023-01-19T16:51:41.163Z,8.8
2023-01-19T16:53:50.325Z,10.2
2023-01-19T16:55:56.443Z,11.4
2023-01-19T16:58:02.678Z,7.3
2023-01-19T17:00:09.216Z,20.6
2023-01-19T17:10:42.800Z,9.7
2023-01-19T17:12:48.979Z,14.2
2023-01-19T17:14:55.189Z,15.3
2023-01-19T17:17:01.484Z,15
2023-01-19T17:19:07.588Z,16.2
2023-01-19T17:21:13.771Z,20.7
2023-01-19T17:23:22.862Z,22.9
2023-01-19T17:25:29.065Z,17.8
2023-01-19T17:27:35.250Z,26.4
2023-01-19T17:29:41.413Z,19.5
2023-01-19T17:35:59.985Z,16.3
2023-01-19T17:38:09.008Z,14.5
2023-01-19T17:42:21.395Z,10.5
2023-01-19T17:43:25.895Z,15.6
2023-01-19T17:45:32.082Z,25.3
2023-01-19T17:47:38.231Z,15.8
2023-01-19T17:49:44.406Z,22.1
2023-01-19T17:51:53.444Z,23.1
2023-01-19T17:53:59.636Z,26.7
2023-01-19T17:56:05.746Z,22.5
2023-01-19T17:58:11.907Z,21.8
2023-01-19T18:00:18.078Z,17.1
2023-01-19T18:02:24.395Z,20.3
2023-01-19T18:06:39.417Z,11.7
2023-01-19T18:10:51.711Z,20.4
2023-01-19T18:12:57.865Z,22.1
2023-01-19T18:15:04.038Z,21.7
2023-01-19T18:17:10.202Z,22.1
2023-01-19T18:23:31.551Z,27.3
2023-01-19T18:25:37.688Z,32.4
2023-01-19T18:27:43.860Z,30.4
2023-01-19T18:29:50.010Z,31.9
2023-01-19T18:31:56.184Z,42
2023-01-19T18:34:02.320Z,41.3
2023-01-19T18:38:17.526Z,39.9
2023-01-19T18:41:29.756Z,38.5
2023-01-19T18:43:34.363Z,46.3
2023-01-19T18:45:40.509Z,44
2023-01-19T18:47:46.684Z,71
2023-01-19T18:49:55.741Z,81.7
2023-01-19T18:52:01.979Z,78.6
2023-01-19T18:54:08.058Z,74.1
2023-01-19T18:56:14.164Z,58.8
2023-01-19T18:58:20.361Z,90.6
2023-01-19T19:00:26.469Z,79.8
2023-01-19T19:02:32.613Z,70.3
2023-01-19T19:04:41.658Z,103.1
2023-01-19T19:11:00.134Z,82
2023-01-19T19:15:12.439Z,96.8
2023-01-19T19:17:18.564Z,85.9
2023-01-19T19:19:27.610Z,120.9
2023-01-19T19:21:33.777Z,115.9
2023-01-19T19:23:39.921Z,120.4
2023-01-19T19:25:46.065Z,105.7
2023-01-19T19:27:52.213Z,101.1
2023-01-19T19:29:58.356Z,101.6
2023-01-19T19:32:04.507Z,100
2023-01-19T19:36:19.706Z,133.6
2023-01-19T19:38:25.901Z,155.1
2023-01-19T19:39:30.400Z,159.2
2023-01-19T19:41:36.546Z,119.4
2023-01-19T19:43:42.714Z,126.7
2023-01-19T19:45:48.847Z,121.8
2023-01-19T19:47:57.905Z,139.3
2023-01-19T19:50:04.075Z,128.1
2023-01-19T19:54:16.376Z,129.1
2023-01-19T19:56:22.514Z,109.2
2023-01-19T19:58:30.260Z,106.6
2023-01-19T20:00:36.485Z,143.3
2023-01-19T20:17:31.449Z,90.1
2023-01-19T20:19:37.601Z,94.1
2023-01-19T20:21:43.750Z,70.8
2023-01-19T20:23:49.892Z,86.1
2023-01-19T20:25:56.058Z,72.1
2023-01-19T20:28:02.221Z,68.9
2023-01-19T20:30:08.364Z,60.5
2023-01-19T20:34:23.601Z,53.8
2023-01-19T20:36:29.778Z,45.5
2023-01-19T20:41:01.628Z,58.9
2023-01-19T20:43:07.800Z,54.4
2023-01-19T20:45:16.863Z,47
2023-01-19T20:47:23.013Z,46.5
2023-01-19T20:49:29.204Z,60.8
2023-01-19T20:51:35.339Z,35.9
2023-01-19T20:53:41.550Z,46.3
2023-01-19T20:55:47.689Z,49
2023-01-19T20:57:53.851Z,46.6
2023-01-19T21:00:02.958Z,46.3
2023-01-19T21:02:09.239Z,47.5
2023-01-19T21:04:15.273Z,46.8
2023-01-19T21:06:21.442Z,40.9
2023-01-19T21:08:27.617Z,60.1
2023-01-19T21:10:33.772Z,48.6
2023-01-19T21:12:39.952Z,43.7
2023-01-19T21:16:55.193Z,51.4
2023-01-19T21:19:01.384Z,48.7
2023-01-19T21:21:10.654Z,43.6
2023-01-19T21:23:13.715Z,43.2
2023-01-19T21:25:19.877Z,49.3
2023-01-19T21:27:26.047Z,43.8
2023-01-19T21:31:41.392Z,50.1
2023-01-19T21:34:52.045Z,51.2
2023-01-19T21:41:10.556Z,59.9
2023-01-19T21:43:19.617Z,63.2
2023-01-19T21:47:31.974Z,79.2
2023-01-19T21:53:50.467Z,79.5
2023-01-19T22:00:11.875Z,87
2023-01-19T22:02:29.892Z,69.4
2023-01-19T22:04:24.215Z,98.6
2023-01-19T22:06:30.378Z,91.7
2023-01-19T22:14:57.912Z,76
2023-01-19T22:17:04.039Z,78.7
2023-01-19T22:19:10.210Z,87.9
2023-01-19T22:21:16.338Z,76.6
2023-01-19T22:23:22.538Z,86.6
2023-01-19T22:32:54.564Z,93.5
2023-01-19T22:35:00.696Z,96.7
2023-01-19T22:37:06.842Z,96.5
2023-01-19T22:39:13.018Z,91.4
2023-01-19T22:41:22.058Z,87.8
2023-01-19T22:43:28.228Z,84.7
2023-01-19T22:45:34.359Z,75.3
2023-01-19T22:47:40.524Z,60.8
2023-01-19T22:49:46.654Z,72.4
2023-01-19T22:58:14.191Z,63.9
2023-01-19T23:00:20.356Z,61.3
2023-01-19T23:02:26.513Z,53
2023-01-19T23:04:32.691Z,64.1
2023-01-19T23:06:38.845Z,44.6
2023-01-19T23:08:45.015Z,52.9
2023-01-19T23:19:18.751Z,63.6
2023-01-19T23:25:40.196Z,62.5
2023-01-19T23:27:46.360Z,45.5
2023-01-19T23:29:52.518Z,52.1
2023-01-19T23:37:15.580Z,39.5
2023-01-19T23:39:24.654Z,29.7
2023-01-19T23:41:30.840Z,42.9
2023-01-19T23:43:36.971Z,22.8
2023-01-19T23:45:43.147Z,31.1
2023-01-19T23:47:49.335Z,29.6
2023-01-19T23:49:55.488Z,23.4
2023-01-19T23:52:01.679Z,31.2
2023-01-19T23:56:16.912Z,28.3
